Naikai2 — JD2433 — position and weather

sailwx.info

Track history (hours):
 
Tides and Currents Weather Stations Pressure Air Temp Water Temp Dewpoint Dewpoint Depression Visibility Wind Speed Wind Dir Waves Ship Positions

Naikai2

Last reported at 2015-Sep-03 09:33 UTC. Time now 2015-Sep-03 10:54 UTC.
Position N 34°37' E 135°09'.

Length 28 m; draft 2.2 m.

Type: Other ship. MMSI: 431000283.

Date/timePositionNaut miles runAvg speedWind from/ knotsBaromVisibWave heightAir tempDewpointWater temp
2015-Sep-03 09:33N 34°37' E 135°09'20 9.1
2015-Sep-03 07:23N 34°19' E 134°59'1214.5
2015-Sep-03 06:33N 34°30' E 135°04'6 0.2
2015-Sep-02 00:32N 34°36' E 135°04'4 3.8
2015-Sep-01 23:33N 34°34' E 135°08'2013.9
2015-Sep-01 22:07N 34°15' E 134°59'5 8.8
2015-Sep-01 21:33N 34°10' E 134°58'1313.2
2015-Sep-01 20:33N 34°23' E 135°00'1514.8
2015-Sep-01 19:34N 34°36' E 135°09'3 3.0
2015-Sep-01 18:33N 34°39' E 135°10'1 0.1
2015-Sep-01 05:31N 34°38' E 135°11'13 9.7
2015-Sep-01 04:08N 34°33' E 135°26'4 6.2
2015-Sep-01 03:33N 34°33' E 135°21'4 4.3
2015-Sep-01 02:33N 34°36' E 135°17'6 6.3
2015-Sep-01 01:33N 34°40' E 135°11'2 0.1
2015-Aug-31 07:11N 34°38' E 135°09'5 8.8
2015-Aug-31 06:33N 34°34' E 135°05'  
2015-Aug-28 23:24N 34°31' E 135°14'2513.3
2015-Aug-28 21:32N 34°10' E 134°58'3 0.1
2015-Aug-27 23:33N 34°13' E 134°59'22 0.5
2015-Aug-26 06:33N 34°34' E 135°09'12 5.8
2015-Aug-26 04:27N 34°24' E 135°01'1314.5
2015-Aug-26 03:33N 34°31' E 135°14'10 9.6
2015-Aug-26 02:33N 34°33' E 135°25'2 1.5
2015-Aug-26 01:30N 34°34' E 135°23'7 7.5
2015-Aug-26 00:32N 34°38' E 135°16'5 5.2
2015-Aug-25 23:33N 34°39' E 135°10'0 0.0
2015-Aug-25 08:29N 34°39' E 135°10'1010.6
2015-Aug-25 07:33N 34°35' E 135°21'2 1.9
2015-Aug-25 06:33N 34°33' E 135°22'4 3.9
2015-Aug-25 05:33N 34°34' E 135°18'8 7.9
2015-Aug-25 04:33N 34°39' E 135°10'0 0.1
2015-Aug-25 02:10N 34°39' E 135°10'813.7
2015-Aug-25 01:33N 34°34' E 135°18'3 3.2
2015-Aug-25 00:33N 34°32' E 135°15'1412.4
2015-Aug-24 23:28N 34°23' E 135°03'1112.0
2015-Aug-24 22:33N 34°13' E 134°59'6 6.1
2015-Aug-24 21:30N 34°19' E 134°59'1414.8
2015-Aug-24 20:33N 34°32' E 135°06'  
Track history (hours):
 
Tides and Currents Weather Stations Pressure Air Temp Water Temp Dewpoint Dewpoint Depression Visibility Wind Speed Wind Dir Waves Ship Positions

Naikai2

Last reported at 2015-Sep-03 09:33 UTC. Time now 2015-Sep-03 10:54 UTC.
Position N 34°37' E 135°09'.

Length 28 m; draft 2.2 m.

Type: Other ship. MMSI: 431000283.

Date/timePositionNaut miles runAvg speedWind from/ knotsBaromVisibWave heightAir tempDewpointWater temp
2015-Sep-03 09:33N 34°37' E 135°09'20 9.1
2015-Sep-03 07:23N 34°19' E 134°59'1214.5
2015-Sep-03 06:33N 34°30' E 135°04'6 0.2
2015-Sep-02 00:32N 34°36' E 135°04'4 3.8
2015-Sep-01 23:33N 34°34' E 135°08'2013.9
2015-Sep-01 22:07N 34°15' E 134°59'5 8.8
2015-Sep-01 21:33N 34°10' E 134°58'1313.2
2015-Sep-01 20:33N 34°23' E 135°00'1514.8
2015-Sep-01 19:34N 34°36' E 135°09'3 3.0
2015-Sep-01 18:33N 34°39' E 135°10'1 0.1
2015-Sep-01 05:31N 34°38' E 135°11'13 9.7
2015-Sep-01 04:08N 34°33' E 135°26'4 6.2
2015-Sep-01 03:33N 34°33' E 135°21'4 4.3
2015-Sep-01 02:33N 34°36' E 135°17'6 6.3
2015-Sep-01 01:33N 34°40' E 135°11'2 0.1
2015-Aug-31 07:11N 34°38' E 135°09'5 8.8
2015-Aug-31 06:33N 34°34' E 135°05'  
2015-Aug-28 23:24N 34°31' E 135°14'2513.3
2015-Aug-28 21:32N 34°10' E 134°58'3 0.1
2015-Aug-27 23:33N 34°13' E 134°59'22 0.5
2015-Aug-26 06:33N 34°34' E 135°09'12 5.8
2015-Aug-26 04:27N 34°24' E 135°01'1314.5
2015-Aug-26 03:33N 34°31' E 135°14'10 9.6
2015-Aug-26 02:33N 34°33' E 135°25'2 1.5
2015-Aug-26 01:30N 34°34' E 135°23'7 7.5
2015-Aug-26 00:32N 34°38' E 135°16'5 5.2
2015-Aug-25 23:33N 34°39' E 135°10'0 0.0
2015-Aug-25 08:29N 34°39' E 135°10'1010.6
2015-Aug-25 07:33N 34°35' E 135°21'2 1.9
2015-Aug-25 06:33N 34°33' E 135°22'4 3.9
2015-Aug-25 05:33N 34°34' E 135°18'8 7.9
2015-Aug-25 04:33N 34°39' E 135°10'0 0.1
2015-Aug-25 02:10N 34°39' E 135°10'813.7
2015-Aug-25 01:33N 34°34' E 135°18'3 3.2
2015-Aug-25 00:33N 34°32' E 135°15'1412.4
2015-Aug-24 23:28N 34°23' E 135°03'1112.0
2015-Aug-24 22:33N 34°13' E 134°59'6 6.1
2015-Aug-24 21:30N 34°19' E 134°59'1414.8
2015-Aug-24 20:33N 34°32' E 135°06'  

Dump ship's entire track history